createdAt,value
2018-10-21T00:02:27.937Z,99.90
2018-10-21T00:04:56.172Z,99.90
2018-10-21T00:07:24.532Z,99.90
2018-10-21T00:09:52.909Z,99.90
2018-10-21T00:12:21.247Z,99.90
2018-10-21T00:14:49.634Z,99.90
2018-10-21T00:17:17.964Z,99.90
2018-10-21T00:19:46.318Z,99.90
2018-10-21T00:22:14.750Z,99.90
2018-10-21T00:24:43.066Z,99.90
2018-10-21T00:27:11.483Z,99.90
2018-10-21T00:29:39.720Z,99.90
2018-10-21T00:32:08.070Z,99.90
2018-10-21T00:34:36.376Z,99.90
2018-10-21T00:37:05.144Z,99.90
2018-10-21T00:39:33.448Z,99.90
2018-10-21T00:42:01.792Z,99.90
2018-10-21T00:44:30.122Z,99.90
2018-10-21T00:46:58.444Z,99.90
2018-10-21T00:49:26.750Z,99.90
2018-10-21T00:51:55.024Z,99.90
2018-10-21T00:54:23.354Z,99.90
2018-10-21T00:56:51.676Z,99.90
2018-10-21T00:59:20.032Z,99.90
2018-10-21T01:01:48.320Z,99.90
2018-10-21T01:04:16.686Z,99.90
2018-10-21T01:06:44.936Z,99.90
2018-10-21T01:09:13.873Z,99.90
2018-10-21T01:11:44.588Z,99.90
2018-10-21T01:14:12.858Z,99.90
2018-10-21T01:16:41.191Z,99.90
2018-10-21T01:19:09.455Z,99.90
2018-10-21T01:21:37.836Z,99.90
2018-10-21T01:24:06.668Z,99.90
2018-10-21T01:26:34.986Z,99.90
2018-10-21T01:29:03.280Z,99.90
2018-10-21T01:31:31.550Z,99.90
2018-10-21T01:33:59.874Z,99.90
2018-10-21T01:36:28.376Z,99.90
2018-10-21T01:38:56.526Z,99.90
2018-10-21T01:41:24.796Z,99.90
2018-10-21T01:43:53.104Z,99.90
2018-10-21T01:46:21.466Z,99.90
2018-10-21T01:48:56.468Z,99.90
2018-10-21T01:51:24.761Z,99.90
2018-10-21T01:53:53.040Z,99.90
2018-10-21T01:56:21.322Z,99.90
2018-10-21T01:58:49.620Z,99.90
2018-10-21T02:01:18.065Z,99.90
2018-10-21T02:03:46.368Z,99.90
2018-10-21T02:06:14.692Z,99.90
2018-10-21T02:08:42.990Z,99.90
2018-10-21T02:11:11.277Z,99.90
2018-10-21T02:13:39.560Z,99.90
2018-10-21T02:16:07.963Z,99.90
2018-10-21T02:18:36.261Z,99.90
2018-10-21T02:21:05.206Z,99.90
2018-10-21T02:23:33.968Z,99.90
2018-10-21T02:26:02.316Z,99.90
2018-10-21T02:28:30.665Z,99.90
2018-10-21T02:30:58.996Z,99.90
2018-10-21T02:33:27.411Z,99.90
2018-10-21T02:35:55.621Z,99.90
2018-10-21T02:38:23.941Z,99.90
2018-10-21T02:41:36.039Z,99.90
2018-10-21T02:44:05.230Z,99.90
2018-10-21T02:46:34.045Z,99.90
2018-10-21T02:49:03.118Z,99.90
2018-10-21T02:51:31.421Z,99.90
2018-10-21T02:53:59.777Z,99.90
2018-10-21T02:56:28.141Z,99.90
2018-10-21T02:58:56.483Z,99.90
2018-10-21T03:01:24.833Z,99.90
2018-10-21T03:03:53.119Z,99.90
2018-10-21T03:06:21.481Z,99.90
2018-10-21T03:08:49.800Z,99.90
2018-10-21T03:11:18.139Z,99.90
2018-10-21T03:13:46.495Z,99.90
2018-10-21T03:16:14.843Z,99.90
2018-10-21T03:18:43.192Z,99.90
2018-10-21T03:21:11.549Z,99.90
2018-10-21T03:23:39.813Z,99.90
2018-10-21T03:26:08.135Z,99.90
2018-10-21T03:28:36.431Z,99.90
2018-10-21T03:31:04.924Z,99.90
2018-10-21T03:33:33.460Z,99.90
2018-10-21T03:36:01.714Z,99.90
2018-10-21T03:38:29.951Z,99.90
2018-10-21T03:40:58.226Z,99.90
2018-10-21T03:43:26.579Z,99.90
2018-10-21T03:45:54.887Z,99.90
2018-10-21T03:48:23.176Z,99.90
2018-10-21T03:50:51.492Z,99.90
2018-10-21T03:53:19.791Z,99.90
2018-10-21T03:55:48.105Z,99.90
2018-10-21T03:58:16.548Z,99.90
2018-10-21T04:00:44.679Z,99.90
2018-10-21T04:03:12.983Z,99.90
2018-10-21T04:05:41.250Z,99.90
2018-10-21T04:08:09.666Z,99.90
2018-10-21T04:10:38.219Z,99.90
2018-10-21T04:13:06.489Z,99.90
2018-10-21T04:15:35.087Z,99.90
2018-10-21T04:18:03.363Z,99.90
2018-10-21T04:20:31.679Z,99.90
2018-10-21T04:23:01.239Z,99.90
2018-10-21T04:25:30.663Z,99.90
2018-10-21T04:27:59.933Z,99.90
2018-10-21T04:30:29.241Z,99.90
2018-10-21T04:33:02.953Z,99.90
2018-10-21T04:35:31.518Z,99.90
2018-10-21T04:40:19.016Z,99.90
2018-10-21T04:42:47.755Z,99.90
2018-10-21T04:45:17.453Z,99.90
2018-10-21T04:47:45.731Z,99.90
2018-10-21T04:50:14.297Z,99.90
2018-10-21T04:52:43.155Z,99.90
2018-10-21T04:55:12.683Z,99.90
2018-10-21T04:57:42.083Z,99.90
2018-10-21T05:00:12.803Z,99.90
2018-10-21T05:02:41.120Z,99.90
2018-10-21T05:05:10.829Z,99.90
2018-10-21T05:07:39.476Z,99.90
2018-10-21T05:10:39.775Z,99.90
2018-10-21T05:13:08.931Z,99.90
2018-10-21T05:15:38.439Z,99.90
2018-10-21T05:18:07.039Z,99.90
2018-10-21T05:20:35.341Z,99.90
2018-10-21T05:23:03.659Z,99.90
2018-10-21T05:25:32.034Z,99.90
2018-10-21T05:28:00.338Z,99.90
2018-10-21T05:30:28.652Z,99.90
2018-10-21T05:32:56.982Z,99.90
2018-10-21T05:35:25.275Z,99.90
2018-10-21T05:37:53.640Z,99.90
2018-10-21T05:40:23.371Z,99.90
2018-10-21T05:42:51.876Z,99.90
2018-10-21T05:45:20.207Z,99.90
2018-10-21T05:47:48.519Z,99.90
2018-10-21T05:50:17.247Z,99.90
2018-10-21T05:52:45.653Z,99.90
2018-10-21T05:55:14.525Z,99.90
2018-10-21T05:57:42.870Z,99.90
2018-10-21T06:00:17.767Z,99.90
2018-10-21T06:02:46.147Z,99.90
2018-10-21T06:05:25.547Z,99.90
2018-10-21T06:07:53.856Z,99.90
2018-10-21T06:10:22.171Z,99.90
2018-10-21T06:12:50.452Z,99.90
2018-10-21T06:15:18.972Z,99.90
2018-10-21T06:17:47.247Z,99.90
2018-10-21T06:20:53.596Z,99.90
2018-10-21T06:23:21.916Z,99.90
2018-10-21T06:25:50.215Z,99.90
2018-10-21T06:28:18.512Z,99.90
2018-10-21T06:30:46.832Z,99.90
2018-10-21T06:33:16.343Z,99.90
2018-10-21T06:35:44.500Z,99.90
2018-10-21T06:38:12.802Z,99.90
2018-10-21T06:40:41.084Z,99.90
2018-10-21T06:43:09.657Z,99.90
2018-10-21T06:45:38.024Z,99.90
2018-10-21T06:48:06.265Z,99.90
2018-10-21T06:50:34.580Z,99.90
2018-10-21T06:55:37.670Z,99.90
2018-10-21T06:58:06.779Z,99.90
2018-10-21T07:00:35.127Z,99.90
2018-10-21T07:03:03.406Z,99.90
2018-10-21T07:06:09.237Z,99.90
2018-10-21T07:08:37.600Z,99.90
2018-10-21T07:11:06.046Z,99.90
2018-10-21T07:13:34.644Z,99.90
2018-10-21T07:16:02.959Z,99.90
2018-10-21T07:18:31.790Z,99.90
2018-10-21T07:21:00.298Z,99.90
2018-10-21T07:23:28.644Z,99.90
2018-10-21T07:25:56.959Z,99.90
2018-10-21T07:28:25.404Z,99.90
2018-10-21T07:30:53.716Z,99.90
2018-10-21T07:33:22.230Z,99.90
2018-10-21T07:35:50.696Z,99.90
2018-10-21T07:38:19.049Z,99.90
2018-10-21T07:40:48.359Z,99.90
2018-10-21T07:43:16.665Z,99.90
2018-10-21T07:45:44.989Z,99.90
2018-10-21T07:48:13.311Z,99.90
2018-10-21T07:50:41.578Z,99.90
2018-10-21T07:53:09.892Z,99.90
2018-10-21T07:55:38.275Z,99.90
2018-10-21T07:58:06.628Z,99.90
2018-10-21T08:00:35.725Z,99.90
2018-10-21T08:03:04.116Z,99.90
2018-10-21T08:05:43.723Z,99.90
2018-10-21T08:08:17.096Z,99.90
2018-10-21T08:10:45.414Z,99.90
2018-10-21T08:13:15.025Z,99.90
2018-10-21T08:15:43.945Z,99.90
2018-10-21T08:18:13.017Z,99.90
2018-10-21T08:20:42.480Z,99.90
2018-10-21T08:23:12.141Z,99.90
2018-10-21T08:25:40.750Z,99.90
2018-10-21T08:28:09.078Z,99.90
2018-10-21T08:30:37.353Z,99.90
2018-10-21T08:33:06.312Z,99.90
2018-10-21T08:35:34.613Z,99.90
2018-10-21T08:38:02.965Z,99.90
2018-10-21T08:40:31.236Z,99.90
2018-10-21T08:42:59.551Z,99.90
2018-10-21T08:45:27.845Z,99.90
2018-10-21T08:47:56.240Z,99.90
2018-10-21T08:50:24.539Z,99.90
2018-10-21T08:52:53.617Z,99.90
2018-10-21T08:55:21.945Z,99.90
2018-10-21T08:57:51.213Z,99.90
2018-10-21T09:00:20.212Z,99.90
2018-10-21T09:02:48.473Z,99.90
2018-10-21T09:05:18.070Z,99.90
2018-10-21T09:07:46.734Z,99.90
2018-10-21T09:10:16.275Z,99.90
2018-10-21T09:12:44.617Z,99.90
2018-10-21T09:15:14.888Z,99.90
2018-10-21T09:17:43.088Z,99.90
2018-10-21T09:20:17.456Z,99.90
2018-10-21T09:22:45.752Z,99.90
2018-10-21T09:25:14.632Z,99.90
2018-10-21T09:27:43.744Z,99.90
2018-10-21T09:30:13.821Z,99.90
2018-10-21T09:32:42.128Z,99.90
2018-10-21T09:35:12.705Z,99.90
2018-10-21T09:37:41.590Z,99.90
2018-10-21T09:40:11.936Z,99.90
2018-10-21T09:42:40.406Z,99.90
2018-10-21T09:45:10.339Z,99.90
2018-10-21T09:47:38.699Z,99.90
2018-10-21T09:50:07.150Z,99.90
2018-10-21T09:52:35.554Z,99.90
2018-10-21T09:55:03.994Z,99.90
2018-10-21T09:57:32.226Z,99.90
2018-10-21T10:00:00.534Z,99.90
2018-10-21T10:02:34.148Z,99.90
2018-10-21T10:05:02.542Z,99.90
2018-10-21T10:07:30.773Z,99.90
2018-10-21T10:09:59.096Z,99.90
2018-10-21T10:12:27.373Z,99.90
2018-10-21T10:14:55.797Z,99.90
2018-10-21T10:17:24.104Z,99.90
2018-10-21T10:19:52.372Z,99.90
2018-10-21T10:22:20.667Z,99.90
2018-10-21T10:24:48.961Z,99.90
2018-10-21T10:27:17.299Z,99.90
2018-10-21T10:29:45.688Z,99.90
2018-10-21T10:32:14.048Z,99.90
2018-10-21T10:34:42.426Z,99.90
2018-10-21T10:37:10.775Z,99.90
2018-10-21T10:39:39.022Z,99.90
2018-10-21T10:42:07.407Z,99.90
2018-10-21T10:44:36.439Z,99.90
2018-10-21T10:47:04.976Z,99.90
2018-10-21T10:49:33.296Z,99.90
2018-10-21T10:52:01.628Z,99.90
2018-10-21T10:54:29.909Z,99.90
2018-10-21T10:56:58.218Z,99.90
2018-10-21T10:59:26.609Z,99.90
2018-10-21T11:01:54.937Z,99.90
2018-10-21T11:04:23.292Z,99.90
2018-10-21T11:06:51.668Z,99.90
2018-10-21T11:09:20.004Z,99.90
2018-10-21T11:11:48.304Z,99.90
2018-10-21T11:14:16.600Z,99.90
2018-10-21T11:16:44.900Z,99.90
2018-10-21T11:19:13.239Z,99.90
2018-10-21T11:21:41.472Z,99.90
2018-10-21T11:24:09.768Z,99.90
2018-10-21T11:26:38.105Z,99.90
2018-10-21T11:29:06.415Z,99.90
2018-10-21T11:31:34.695Z,99.90
2018-10-21T11:34:03.027Z,99.90
2018-10-21T11:36:31.341Z,99.90
2018-10-21T11:38:59.597Z,99.90
2018-10-21T11:41:27.906Z,99.90
2018-10-21T11:43:56.227Z,99.90
2018-10-21T11:46:24.744Z,99.90
2018-10-21T11:48:53.095Z,99.90
2018-10-21T11:51:21.452Z,99.90
2018-10-21T11:53:49.753Z,99.90
2018-10-21T11:56:18.043Z,99.90
2018-10-21T11:58:46.339Z,99.90
2018-10-21T12:01:14.668Z,99.90
2018-10-21T12:03:43.009Z,99.90
2018-10-21T12:06:11.334Z,99.90
2018-10-21T12:08:39.621Z,99.90
2018-10-21T12:11:07.929Z,99.90
2018-10-21T12:13:36.260Z,99.90
2018-10-21T12:16:04.865Z,99.90
2018-10-21T12:18:33.147Z,99.90
2018-10-21T12:21:01.467Z,99.90
2018-10-21T12:23:29.806Z,99.90
2018-10-21T12:25:58.071Z,99.90
2018-10-21T12:28:26.365Z,99.90
2018-10-21T12:30:54.655Z,99.90
2018-10-21T12:33:22.973Z,99.90
2018-10-21T12:35:51.269Z,99.90
2018-10-21T12:38:19.583Z,99.90
2018-10-21T12:40:47.871Z,99.90
2018-10-21T12:43:16.212Z,99.90
2018-10-21T12:45:44.481Z,99.90
2018-10-21T12:48:12.765Z,99.90
2018-10-21T12:50:41.107Z,99.90
2018-10-21T12:53:09.408Z,99.90
2018-10-21T12:55:43.157Z,99.90
2018-10-21T12:58:11.557Z,99.90
2018-10-21T13:00:39.805Z,99.90
2018-10-21T13:03:08.112Z,99.90
2018-10-21T13:05:36.389Z,99.90
2018-10-21T13:08:04.778Z,99.90
2018-10-21T13:10:33.100Z,99.90
2018-10-21T13:13:02.104Z,99.90
2018-10-21T13:15:30.313Z,99.90
2018-10-21T13:17:58.621Z,99.90
2018-10-21T13:20:26.953Z,99.90
2018-10-21T13:22:55.278Z,99.10
2018-10-21T13:25:23.591Z,97.60
2018-10-21T13:27:51.906Z,97.80
2018-10-21T13:30:20.215Z,97.30
2018-10-21T13:32:48.499Z,95.90
2018-10-21T13:35:16.797Z,96.30
2018-10-21T13:37:45.091Z,95.80
2018-10-21T13:40:13.498Z,94.00
2018-10-21T13:42:41.703Z,94.90
2018-10-21T13:45:09.985Z,94.90
2018-10-21T13:47:38.325Z,95.00
2018-10-21T13:50:07.681Z,94.90
2018-10-21T13:52:36.044Z,95.00
2018-10-21T13:55:04.454Z,94.10
2018-10-21T13:57:32.719Z,94.00
2018-10-21T14:00:01.666Z,93.50
2018-10-21T14:02:29.930Z,93.60
2018-10-21T14:04:58.257Z,92.90
2018-10-21T14:07:27.681Z,92.40
2018-10-21T14:09:55.962Z,93.20
2018-10-21T14:12:24.213Z,93.70
2018-10-21T14:14:52.532Z,93.30
2018-10-21T14:17:20.881Z,93.90
2018-10-21T14:19:49.171Z,94.50
2018-10-21T14:22:18.757Z,94.40
2018-10-21T14:24:47.225Z,92.10
2018-10-21T14:27:15.723Z,92.30
2018-10-21T14:29:44.293Z,92.80
2018-10-21T14:32:12.637Z,92.40
2018-10-21T14:34:40.955Z,91.20
2018-10-21T14:37:09.332Z,91.20
2018-10-21T14:39:37.648Z,91.50
2018-10-21T14:42:05.963Z,91.40
2018-10-21T14:44:34.339Z,91.20
2018-10-21T14:47:02.651Z,90.00
2018-10-21T14:49:30.957Z,90.80
2018-10-21T14:51:59.309Z,91.10
2018-10-21T14:54:27.627Z,90.20
2018-10-21T14:56:55.960Z,89.00
2018-10-21T14:59:24.299Z,90.40
2018-10-21T15:01:52.607Z,90.20
2018-10-21T15:04:20.945Z,90.10
2018-10-21T15:06:49.258Z,90.40
2018-10-21T15:09:17.617Z,90.10
2018-10-21T15:11:45.813Z,91.00
2018-10-21T15:14:14.133Z,91.30
2018-10-21T15:16:42.437Z,91.70
2018-10-21T15:19:10.741Z,92.00
2018-10-21T15:21:39.072Z,92.10
2018-10-21T15:24:07.388Z,92.40
2018-10-21T15:26:35.721Z,92.40
2018-10-21T15:29:04.068Z,92.60
2018-10-21T15:31:32.365Z,91.80
2018-10-21T15:34:00.706Z,92.10
2018-10-21T15:36:28.989Z,92.30
2018-10-21T15:38:57.297Z,93.20
2018-10-21T15:41:25.604Z,93.90
2018-10-21T15:43:53.921Z,93.50
2018-10-21T15:46:22.297Z,93.60
2018-10-21T15:48:50.562Z,93.60
2018-10-21T15:51:18.824Z,94.40
2018-10-21T15:53:47.133Z,95.00
2018-10-21T15:56:15.491Z,95.70
2018-10-21T15:58:43.770Z,96.00
2018-10-21T16:01:12.080Z,96.50
2018-10-21T16:03:40.377Z,96.80
2018-10-21T16:06:08.684Z,96.70
2018-10-21T16:08:36.981Z,97.10
2018-10-21T16:11:05.470Z,97.50
2018-10-21T16:13:33.849Z,97.70
2018-10-21T16:16:02.165Z,98.20
2018-10-21T16:18:30.550Z,98.70
2018-10-21T16:20:58.982Z,99.40
2018-10-21T16:23:28.038Z,99.90
2018-10-21T16:25:56.449Z,99.90
2018-10-21T16:28:24.932Z,99.90
2018-10-21T16:30:53.244Z,99.90
2018-10-21T16:33:21.550Z,99.90
2018-10-21T16:35:49.939Z,99.90
2018-10-21T16:38:18.338Z,99.90
2018-10-21T16:40:46.592Z,99.90
2018-10-21T16:43:14.944Z,99.90
2018-10-21T16:45:43.262Z,99.90
2018-10-21T16:48:11.618Z,99.90
2018-10-21T16:50:39.956Z,99.90
2018-10-21T16:53:08.440Z,99.90
2018-10-21T16:55:36.766Z,99.90
2018-10-21T16:58:05.213Z,99.90
2018-10-21T17:00:34.863Z,99.90
2018-10-21T17:03:03.148Z,99.90
2018-10-21T17:05:31.418Z,99.90
2018-10-21T17:07:59.777Z,99.90
2018-10-21T17:10:28.411Z,99.90
2018-10-21T17:12:56.517Z,99.90
2018-10-21T17:15:24.790Z,99.90
2018-10-21T17:17:53.121Z,99.90
2018-10-21T17:20:21.481Z,99.90
2018-10-21T17:22:49.792Z,99.90
2018-10-21T17:25:18.236Z,99.90
2018-10-21T17:27:46.780Z,99.90
2018-10-21T17:30:17.915Z,99.90
2018-10-21T17:32:46.655Z,99.90
2018-10-21T17:35:21.632Z,99.90
2018-10-21T17:37:50.086Z,99.90
2018-10-21T17:40:18.598Z,99.90
2018-10-21T17:42:46.919Z,99.90
2018-10-21T17:45:15.909Z,99.90
2018-10-21T17:47:44.438Z,99.90
2018-10-21T17:50:14.031Z,99.90
2018-10-21T17:52:42.927Z,99.90
2018-10-21T17:55:11.582Z,99.90
2018-10-21T17:57:40.720Z,99.90
2018-10-21T18:00:11.240Z,99.90
2018-10-21T18:02:39.879Z,99.90
2018-10-21T18:05:10.275Z,99.90
2018-10-21T18:07:39.069Z,99.90
2018-10-21T18:10:07.721Z,99.90
2018-10-21T18:12:36.342Z,99.90
2018-10-21T18:15:05.620Z,99.90
2018-10-21T18:17:34.091Z,99.90
2018-10-21T18:20:02.570Z,99.90
2018-10-21T18:22:31.070Z,99.90
2018-10-21T18:24:59.547Z,99.90
2018-10-21T18:27:28.304Z,99.90
2018-10-21T18:29:57.080Z,99.90
2018-10-21T18:32:27.063Z,99.90
2018-10-21T18:34:55.450Z,99.90
2018-10-21T18:37:23.858Z,99.90
2018-10-21T18:39:53.034Z,99.90
2018-10-21T18:42:22.107Z,99.90
2018-10-21T18:44:51.528Z,99.90
2018-10-21T18:47:20.042Z,99.90
2018-10-21T18:49:48.475Z,99.90
2018-10-21T18:52:17.068Z,99.90
2018-10-21T18:54:46.207Z,99.90
2018-10-21T18:57:16.246Z,99.90
2018-10-21T18:59:44.976Z,99.90
2018-10-21T19:02:14.254Z,99.90
2018-10-21T19:04:42.791Z,99.90
2018-10-21T19:07:12.355Z,99.90
2018-10-21T19:09:40.632Z,99.90
2018-10-21T19:12:09.049Z,99.90
2018-10-21T19:14:38.212Z,99.90
2018-10-21T19:17:06.690Z,99.90
2018-10-21T19:19:35.926Z,99.90
2018-10-21T19:22:04.562Z,99.90
2018-10-21T19:24:33.673Z,99.90
2018-10-21T19:27:02.176Z,99.90
2018-10-21T19:29:31.228Z,99.90
2018-10-21T19:31:59.869Z,99.90
2018-10-21T19:34:28.322Z,99.90
2018-10-21T19:36:57.375Z,99.90
2018-10-21T19:39:26.818Z,99.90
2018-10-21T19:41:55.563Z,99.90
2018-10-21T19:44:24.039Z,99.90
2018-10-21T19:46:52.490Z,99.90
2018-10-21T19:49:20.947Z,99.90
2018-10-21T19:51:49.732Z,99.90
2018-10-21T19:54:18.224Z,99.90
2018-10-21T19:56:46.659Z,99.90
2018-10-21T19:59:15.929Z,99.90
2018-10-21T20:01:44.367Z,99.90
2018-10-21T20:04:14.881Z,99.90
2018-10-21T20:06:44.190Z,99.90
2018-10-21T20:09:12.659Z,99.90
2018-10-21T20:11:41.676Z,99.90
2018-10-21T20:14:10.116Z,99.90
2018-10-21T20:16:38.557Z,99.90
2018-10-21T20:19:08.332Z,99.90
2018-10-21T20:21:37.037Z,99.90
2018-10-21T20:24:05.592Z,99.90
2018-10-21T20:26:34.054Z,99.90
2018-10-21T20:29:02.437Z,99.90
2018-10-21T20:31:30.885Z,99.90
2018-10-21T20:33:59.867Z,99.90
2018-10-21T20:36:28.253Z,99.90
2018-10-21T20:38:56.601Z,99.90
2018-10-21T20:41:24.939Z,99.90
2018-10-21T20:43:53.573Z,99.90
2018-10-21T20:46:21.926Z,99.90
2018-10-21T20:48:50.301Z,99.90
2018-10-21T20:51:18.943Z,99.90
2018-10-21T20:53:47.220Z,99.90
2018-10-21T20:56:15.542Z,99.90
2018-10-21T20:58:43.858Z,99.90
2018-10-21T21:01:12.223Z,99.90
2018-10-21T21:03:40.576Z,99.90
2018-10-21T21:06:08.929Z,99.90
2018-10-21T21:08:37.862Z,99.90
2018-10-21T21:11:06.595Z,99.90
2018-10-21T21:13:34.981Z,99.90
2018-10-21T21:16:03.351Z,99.90
2018-10-21T21:18:31.603Z,99.90
2018-10-21T21:21:00.547Z,99.90
2018-10-21T21:23:28.836Z,99.90
2018-10-21T21:25:57.151Z,99.90
2018-10-21T21:28:25.445Z,99.90
2018-10-21T21:30:53.777Z,99.90
2018-10-21T21:33:24.888Z,99.90
2018-10-21T21:35:53.173Z,99.90
2018-10-21T21:38:21.688Z,99.90
2018-10-21T21:40:49.953Z,99.90
2018-10-21T21:43:18.243Z,99.90
2018-10-21T21:45:46.515Z,99.90
2018-10-21T21:48:14.914Z,99.90
2018-10-21T21:50:43.173Z,99.90
2018-10-21T21:53:11.453Z,99.90
2018-10-21T21:55:39.737Z,99.90
2018-10-21T21:58:08.249Z,99.90
2018-10-21T22:00:36.543Z,99.90
2018-10-21T22:03:05.082Z,99.90
2018-10-21T22:05:33.375Z,99.90
2018-10-21T22:08:01.691Z,99.90
2018-10-21T22:10:30.030Z,99.90
2018-10-21T22:12:59.050Z,99.90
2018-10-21T22:15:27.353Z,99.90
2018-10-21T22:17:55.649Z,99.90
2018-10-21T22:20:23.970Z,99.90
2018-10-21T22:22:52.282Z,99.90
2018-10-21T22:25:20.573Z,99.90
2018-10-21T22:27:48.862Z,99.90
2018-10-21T22:30:17.194Z,99.90
2018-10-21T22:32:45.416Z,99.90
2018-10-21T22:35:13.721Z,99.90
2018-10-21T22:37:41.974Z,99.90
2018-10-21T22:40:10.365Z,99.90
2018-10-21T22:42:38.700Z,99.90
2018-10-21T22:45:08.196Z,99.90
2018-10-21T22:47:36.529Z,99.90
2018-10-21T22:50:06.320Z,99.90
2018-10-21T22:52:34.628Z,99.90
2018-10-21T22:55:02.912Z,99.90
2018-10-21T22:57:31.189Z,99.90
2018-10-21T22:59:59.512Z,99.90
2018-10-21T23:02:27.785Z,99.90
2018-10-21T23:04:56.044Z,99.90
2018-10-21T23:07:24.319Z,99.90
2018-10-21T23:09:53.032Z,99.90
2018-10-21T23:12:21.300Z,99.90
2018-10-21T23:14:49.620Z,99.90
2018-10-21T23:17:17.903Z,99.90
2018-10-21T23:19:47.392Z,99.90
2018-10-21T23:22:15.903Z,99.90
2018-10-21T23:24:44.024Z,99.90
2018-10-21T23:27:12.921Z,99.90
2018-10-21T23:29:42.717Z,99.90
2018-10-21T23:32:11.043Z,99.90
2018-10-21T23:34:39.355Z,99.90
2018-10-21T23:37:07.619Z,99.90
2018-10-21T23:39:35.907Z,99.90
2018-10-21T23:42:04.329Z,99.90
2018-10-21T23:44:32.591Z,99.90
2018-10-21T23:47:00.873Z,99.90
2018-10-21T23:49:29.157Z,99.90
2018-10-21T23:51:57.513Z,99.90
2018-10-21T23:54:25.764Z,99.90
2018-10-21T23:56:54.043Z,99.90
2018-10-21T23:59:22.350Z,99.90
